sensor_id;sensor_type;location;lat;lon;timestamp;P1;durP1;ratioP1;P2;durP2;ratioP2
45812;SDS011;31519;45.408;10.962;2022-11-20T00:01:36;14.07;;;6.82;;
45812;SDS011;31519;45.408;10.962;2022-11-20T00:04:04;22.08;;;7.80;;
45812;SDS011;31519;45.408;10.962;2022-11-20T00:06:32;13.80;;;6.53;;
45812;SDS011;31519;45.408;10.962;2022-11-20T00:09:01;14.45;;;7.30;;
45812;SDS011;31519;45.408;10.962;2022-11-20T00:11:29;12.75;;;6.97;;
45812;SDS011;31519;45.408;10.962;2022-11-20T00:14:00;13.43;;;7.03;;
45812;SDS011;31519;45.408;10.962;2022-11-20T00:16:30;13.48;;;7.82;;
45812;SDS011;31519;45.408;10.962;2022-11-20T00:19:01;13.48;;;6.97;;
45812;SDS011;31519;45.408;10.962;2022-11-20T00:21:29;11.13;;;6.13;;
45812;SDS011;31519;45.408;10.962;2022-11-20T00:23:58;11.73;;;6.10;;
45812;SDS011;31519;45.408;10.962;2022-11-20T00:26:26;9.80;;;6.22;;
45812;SDS011;31519;45.408;10.962;2022-11-20T00:28:57;16.35;;;6.40;;
45812;SDS011;31519;45.408;10.962;2022-11-20T00:31:27;13.00;;;6.63;;
45812;SDS011;31519;45.408;10.962;2022-11-20T00:33:56;14.70;;;6.43;;
45812;SDS011;31519;45.408;10.962;2022-11-20T00:36:26;12.18;;;6.40;;
45812;SDS011;31519;45.408;10.962;2022-11-20T00:38:56;12.05;;;6.28;;
45812;SDS011;31519;45.408;10.962;2022-11-20T00:41:26;8.93;;;5.85;;
45812;SDS011;31519;45.408;10.962;2022-11-20T00:43:56;13.77;;;6.82;;
45812;SDS011;31519;45.408;10.962;2022-11-20T00:46:26;14.32;;;6.70;;
45812;SDS011;31519;45.408;10.962;2022-11-20T00:48:55;14.27;;;6.22;;
45812;SDS011;31519;45.408;10.962;2022-11-20T00:51:25;13.18;;;6.22;;
45812;SDS011;31519;45.408;10.962;2022-11-20T00:53:55;10.43;;;6.13;;
45812;SDS011;31519;45.408;10.962;2022-11-20T00:56:24;12.45;;;4.95;;
45812;SDS011;31519;45.408;10.962;2022-11-20T00:58:53;11.32;;;6.25;;
45812;SDS011;31519;45.408;10.962;2022-11-20T01:01:23;15.30;;;6.38;;
45812;SDS011;31519;45.408;10.962;2022-11-20T01:03:55;11.48;;;6.18;;
45812;SDS011;31519;45.408;10.962;2022-11-20T01:08:55;13.88;;;5.57;;
45812;SDS011;31519;45.408;10.962;2022-11-20T01:11:29;11.18;;;5.68;;
45812;SDS011;31519;45.408;10.962;2022-11-20T01:14:04;10.82;;;6.18;;
45812;SDS011;31519;45.408;10.962;2022-11-20T01:16:35;8.93;;;5.75;;
45812;SDS011;31519;45.408;10.962;2022-11-20T01:19:06;15.30;;;5.65;;
45812;SDS011;31519;45.408;10.962;2022-11-20T01:21:42;11.50;;;5.82;;
45812;SDS011;31519;45.408;10.962;2022-11-20T01:24:13;10.10;;;5.07;;
45812;SDS011;31519;45.408;10.962;2022-11-20T01:26:43;13.43;;;5.47;;
45812;SDS011;31519;45.408;10.962;2022-11-20T01:29:19;11.57;;;5.75;;
45812;SDS011;31519;45.408;10.962;2022-11-20T01:31:49;12.35;;;5.00;;
45812;SDS011;31519;45.408;10.962;2022-11-20T01:34:20;8.82;;;5.07;;
45812;SDS011;31519;45.408;10.962;2022-11-20T01:36:50;6.55;;;3.60;;
45812;SDS011;31519;45.408;10.962;2022-11-20T01:39:22;8.98;;;4.40;;
45812;SDS011;31519;45.408;10.962;2022-11-20T01:41:52;12.55;;;5.30;;
45812;SDS011;31519;45.408;10.962;2022-11-20T01:44:50;9.45;;;5.30;;
45812;SDS011;31519;45.408;10.962;2022-11-20T01:47:27;11.38;;;4.60;;
45812;SDS011;31519;45.408;10.962;2022-11-20T01:50:06;7.47;;;4.43;;
45812;SDS011;31519;45.408;10.962;2022-11-20T01:52:45;6.60;;;3.92;;
45812;SDS011;31519;45.408;10.962;2022-11-20T01:55:28;9.63;;;4.07;;
45812;SDS011;31519;45.408;10.962;2022-11-20T01:57:59;9.80;;;4.93;;
45812;SDS011;31519;45.408;10.962;2022-11-20T02:00:29;13.80;;;6.13;;
45812;SDS011;31519;45.408;10.962;2022-11-20T02:02:59;7.55;;;4.55;;
45812;SDS011;31519;45.408;10.962;2022-11-20T02:08:02;13.25;;;5.93;;
45812;SDS011;31519;45.408;10.962;2022-11-20T02:10:33;12.18;;;4.55;;
45812;SDS011;31519;45.408;10.962;2022-11-20T02:13:02;11.02;;;4.53;;
45812;SDS011;31519;45.408;10.962;2022-11-20T02:15:50;10.43;;;4.30;;
45812;SDS011;31519;45.408;10.962;2022-11-20T02:18:19;12.48;;;5.28;;
45812;SDS011;31519;45.408;10.962;2022-11-20T02:20:51;10.82;;;5.22;;
45812;SDS011;31519;45.408;10.962;2022-11-20T02:26:00;8.05;;;5.00;;
45812;SDS011;31519;45.408;10.962;2022-11-20T02:28:31;10.13;;;4.20;;
45812;SDS011;31519;45.408;10.962;2022-11-20T02:31:00;5.78;;;3.58;;
45812;SDS011;31519;45.408;10.962;2022-11-20T02:33:28;6.45;;;3.83;;
45812;SDS011;31519;45.408;10.962;2022-11-20T02:35:57;6.80;;;3.80;;
45812;SDS011;31519;45.408;10.962;2022-11-20T02:38:24;11.38;;;3.90;;
45812;SDS011;31519;45.408;10.962;2022-11-20T02:40:53;6.78;;;3.67;;
45812;SDS011;31519;45.408;10.962;2022-11-20T02:43:22;6.88;;;4.03;;
45812;SDS011;31519;45.408;10.962;2022-11-20T02:45:51;7.55;;;3.85;;
45812;SDS011;31519;45.408;10.962;2022-11-20T02:48:19;13.93;;;3.67;;
45812;SDS011;31519;45.408;10.962;2022-11-20T02:50:48;5.55;;;3.38;;
45812;SDS011;31519;45.408;10.962;2022-11-20T02:53:16;8.07;;;3.28;;
45812;SDS011;31519;45.408;10.962;2022-11-20T02:55:44;6.28;;;3.65;;
45812;SDS011;31519;45.408;10.962;2022-11-20T02:58:12;5.95;;;3.17;;
45812;SDS011;31519;45.408;10.962;2022-11-20T03:00:40;7.90;;;3.85;;
45812;SDS011;31519;45.408;10.962;2022-11-20T03:03:08;10.88;;;3.33;;
45812;SDS011;31519;45.408;10.962;2022-11-20T03:05:37;5.05;;;2.92;;
45812;SDS011;31519;45.408;10.962;2022-11-20T03:08:05;8.77;;;3.67;;
45812;SDS011;31519;45.408;10.962;2022-11-20T03:10:33;6.80;;;3.53;;
45812;SDS011;31519;45.408;10.962;2022-11-20T03:13:01;6.72;;;3.90;;
45812;SDS011;31519;45.408;10.962;2022-11-20T03:15:30;7.85;;;3.22;;
45812;SDS011;31519;45.408;10.962;2022-11-20T03:17:58;5.63;;;3.17;;
45812;SDS011;31519;45.408;10.962;2022-11-20T03:20:26;5.32;;;3.53;;
45812;SDS011;31519;45.408;10.962;2022-11-20T03:22:54;7.82;;;3.67;;
45812;SDS011;31519;45.408;10.962;2022-11-20T03:25:23;7.38;;;3.35;;
45812;SDS011;31519;45.408;10.962;2022-11-20T03:27:51;5.35;;;3.20;;
45812;SDS011;31519;45.408;10.962;2022-11-20T03:30:19;6.00;;;3.42;;
45812;SDS011;31519;45.408;10.962;2022-11-20T03:32:47;6.80;;;3.58;;
45812;SDS011;31519;45.408;10.962;2022-11-20T03:35:16;7.03;;;3.40;;
45812;SDS011;31519;45.408;10.962;2022-11-20T03:37:44;9.75;;;3.35;;
45812;SDS011;31519;45.408;10.962;2022-11-20T03:40:13;7.20;;;3.28;;
45812;SDS011;31519;45.408;10.962;2022-11-20T03:42:41;6.30;;;3.28;;
45812;SDS011;31519;45.408;10.962;2022-11-20T03:45:16;13.13;;;3.63;;
45812;SDS011;31519;45.408;10.962;2022-11-20T03:47:45;6.35;;;2.97;;
45812;SDS011;31519;45.408;10.962;2022-11-20T03:50:14;4.07;;;2.72;;
45812;SDS011;31519;45.408;10.962;2022-11-20T03:52:42;5.00;;;2.65;;
45812;SDS011;31519;45.408;10.962;2022-11-20T03:55:10;4.90;;;2.75;;
45812;SDS011;31519;45.408;10.962;2022-11-20T03:57:38;12.93;;;4.82;;
45812;SDS011;31519;45.408;10.962;2022-11-20T04:00:08;3.78;;;2.78;;
45812;SDS011;31519;45.408;10.962;2022-11-20T04:02:36;5.78;;;3.22;;
45812;SDS011;31519;45.408;10.962;2022-11-20T04:05:04;6.18;;;2.85;;
45812;SDS011;31519;45.408;10.962;2022-11-20T04:07:33;5.65;;;3.35;;
45812;SDS011;31519;45.408;10.962;2022-11-20T04:10:02;6.10;;;3.38;;
45812;SDS011;31519;45.408;10.962;2022-11-20T04:12:33;4.95;;;3.35;;
45812;SDS011;31519;45.408;10.962;2022-11-20T04:15:02;5.70;;;2.30;;
45812;SDS011;31519;45.408;10.962;2022-11-20T04:17:30;5.97;;;2.83;;
45812;SDS011;31519;45.408;10.962;2022-11-20T04:19:58;6.03;;;3.25;;
45812;SDS011;31519;45.408;10.962;2022-11-20T04:22:27;5.85;;;3.10;;
45812;SDS011;31519;45.408;10.962;2022-11-20T04:24:55;6.03;;;3.33;;
45812;SDS011;31519;45.408;10.962;2022-11-20T04:27:23;6.38;;;3.17;;
45812;SDS011;31519;45.408;10.962;2022-11-20T04:29:51;4.65;;;2.83;;
45812;SDS011;31519;45.408;10.962;2022-11-20T04:32:19;7.50;;;3.05;;
45812;SDS011;31519;45.408;10.962;2022-11-20T04:34:47;8.18;;;3.97;;
45812;SDS011;31519;45.408;10.962;2022-11-20T04:37:15;5.07;;;3.15;;
45812;SDS011;31519;45.408;10.962;2022-11-20T04:39:44;7.82;;;3.80;;
45812;SDS011;31519;45.408;10.962;2022-11-20T04:42:13;5.32;;;3.03;;
45812;SDS011;31519;45.408;10.962;2022-11-20T04:44:57;5.82;;;3.00;;
45812;SDS011;31519;45.408;10.962;2022-11-20T04:47:25;6.25;;;3.42;;
45812;SDS011;31519;45.408;10.962;2022-11-20T04:49:54;5.03;;;3.20;;
45812;SDS011;31519;45.408;10.962;2022-11-20T04:52:22;5.10;;;2.90;;
45812;SDS011;31519;45.408;10.962;2022-11-20T04:54:50;5.78;;;3.35;;
45812;SDS011;31519;45.408;10.962;2022-11-20T04:57:20;6.22;;;3.05;;
45812;SDS011;31519;45.408;10.962;2022-11-20T04:59:48;4.75;;;3.20;;
45812;SDS011;31519;45.408;10.962;2022-11-20T05:02:16;7.40;;;2.80;;
45812;SDS011;31519;45.408;10.962;2022-11-20T05:04:44;11.73;;;3.17;;
45812;SDS011;31519;45.408;10.962;2022-11-20T05:07:12;8.63;;;3.90;;
45812;SDS011;31519;45.408;10.962;2022-11-20T05:09:40;9.82;;;4.35;;
45812;SDS011;31519;45.408;10.962;2022-11-20T05:12:09;8.07;;;4.28;;
45812;SDS011;31519;45.408;10.962;2022-11-20T05:14:37;8.02;;;4.25;;
45812;SDS011;31519;45.408;10.962;2022-11-20T05:17:05;5.50;;;3.50;;
45812;SDS011;31519;45.408;10.962;2022-11-20T05:19:35;12.38;;;3.70;;
45812;SDS011;31519;45.408;10.962;2022-11-20T05:22:03;6.90;;;3.28;;
45812;SDS011;31519;45.408;10.962;2022-11-20T05:24:34;6.20;;;3.45;;
45812;SDS011;31519;45.408;10.962;2022-11-20T05:27:02;17.25;;;3.53;;
45812;SDS011;31519;45.408;10.962;2022-11-20T05:29:30;6.25;;;3.50;;
45812;SDS011;31519;45.408;10.962;2022-11-20T05:31:58;4.65;;;3.13;;
45812;SDS011;31519;45.408;10.962;2022-11-20T05:34:26;6.75;;;3.42;;
45812;SDS011;31519;45.408;10.962;2022-11-20T05:36:54;4.47;;;3.22;;
45812;SDS011;31519;45.408;10.962;2022-11-20T05:39:22;5.60;;;3.17;;
45812;SDS011;31519;45.408;10.962;2022-11-20T05:41:50;7.90;;;3.63;;
45812;SDS011;31519;45.408;10.962;2022-11-20T05:44:40;7.68;;;4.63;;
45812;SDS011;31519;45.408;10.962;2022-11-20T05:47:09;46.35;;;22.90;;
45812;SDS011;31519;45.408;10.962;2022-11-20T05:49:38;17.35;;;9.52;;
45812;SDS011;31519;45.408;10.962;2022-11-20T05:52:06;8.98;;;5.20;;
45812;SDS011;31519;45.408;10.962;2022-11-20T05:54:35;12.02;;;5.25;;
45812;SDS011;31519;45.408;10.962;2022-11-20T05:57:04;5.18;;;3.38;;
45812;SDS011;31519;45.408;10.962;2022-11-20T05:59:32;4.90;;;2.70;;
45812;SDS011;31519;45.408;10.962;2022-11-20T06:02:00;8.68;;;4.05;;
45812;SDS011;31519;45.408;10.962;2022-11-20T06:04:28;6.57;;;3.70;;
45812;SDS011;31519;45.408;10.962;2022-11-20T06:06:56;5.05;;;2.55;;
45812;SDS011;31519;45.408;10.962;2022-11-20T06:09:24;8.60;;;3.08;;
45812;SDS011;31519;45.408;10.962;2022-11-20T06:11:52;11.65;;;6.65;;
45812;SDS011;31519;45.408;10.962;2022-11-20T06:14:20;11.00;;;5.40;;
45812;SDS011;31519;45.408;10.962;2022-11-20T06:16:48;11.00;;;6.82;;
45812;SDS011;31519;45.408;10.962;2022-11-20T06:19:17;6.72;;;3.42;;
45812;SDS011;31519;45.408;10.962;2022-11-20T06:21:47;7.68;;;4.70;;
45812;SDS011;31519;45.408;10.962;2022-11-20T06:24:17;10.18;;;5.13;;
45812;SDS011;31519;45.408;10.962;2022-11-20T06:26:45;7.95;;;3.80;;
45812;SDS011;31519;45.408;10.962;2022-11-20T06:29:13;12.90;;;4.47;;
45812;SDS011;31519;45.408;10.962;2022-11-20T06:31:41;8.85;;;5.10;;
45812;SDS011;31519;45.408;10.962;2022-11-20T06:34:10;9.07;;;4.10;;
45812;SDS011;31519;45.408;10.962;2022-11-20T06:36:38;12.30;;;4.50;;
45812;SDS011;31519;45.408;10.962;2022-11-20T06:39:07;7.32;;;3.78;;
45812;SDS011;31519;45.408;10.962;2022-11-20T06:41:36;10.02;;;3.42;;
45812;SDS011;31519;45.408;10.962;2022-11-20T06:44:05;10.18;;;4.47;;
45812;SDS011;31519;45.408;10.962;2022-11-20T06:46:33;7.88;;;4.38;;
45812;SDS011;31519;45.408;10.962;2022-11-20T06:49:01;6.90;;;2.95;;
45812;SDS011;31519;45.408;10.962;2022-11-20T06:51:30;7.35;;;3.65;;
45812;SDS011;31519;45.408;10.962;2022-11-20T06:53:58;7.25;;;3.95;;
45812;SDS011;31519;45.408;10.962;2022-11-20T06:56:28;6.78;;;3.90;;
45812;SDS011;31519;45.408;10.962;2022-11-20T06:58:58;8.48;;;4.07;;
45812;SDS011;31519;45.408;10.962;2022-11-20T07:01:26;7.88;;;3.95;;
45812;SDS011;31519;45.408;10.962;2022-11-20T07:03:54;7.97;;;3.47;;
45812;SDS011;31519;45.408;10.962;2022-11-20T07:06:22;7.68;;;4.22;;
45812;SDS011;31519;45.408;10.962;2022-11-20T07:08:51;11.38;;;6.00;;
45812;SDS011;31519;45.408;10.962;2022-11-20T07:11:20;11.05;;;4.78;;
45812;SDS011;31519;45.408;10.962;2022-11-20T07:13:50;20.25;;;9.00;;
45812;SDS011;31519;45.408;10.962;2022-11-20T07:16:18;17.65;;;7.57;;
45812;SDS011;31519;45.408;10.962;2022-11-20T07:18:47;30.38;;;10.93;;
45812;SDS011;31519;45.408;10.962;2022-11-20T07:21:17;15.15;;;5.50;;
45812;SDS011;31519;45.408;10.962;2022-11-20T07:23:45;18.05;;;5.88;;
45812;SDS011;31519;45.408;10.962;2022-11-20T07:26:14;8.85;;;3.90;;
45812;SDS011;31519;45.408;10.962;2022-11-20T07:28:44;5.88;;;3.72;;
45812;SDS011;31519;45.408;10.962;2022-11-20T07:31:13;9.23;;;3.97;;
45812;SDS011;31519;45.408;10.962;2022-11-20T07:33:47;6.47;;;3.40;;
45812;SDS011;31519;45.408;10.962;2022-11-20T07:36:15;12.23;;;4.55;;
45812;SDS011;31519;45.408;10.962;2022-11-20T07:38:44;9.93;;;6.35;;
45812;SDS011;31519;45.408;10.962;2022-11-20T07:41:12;9.45;;;5.15;;
45812;SDS011;31519;45.408;10.962;2022-11-20T07:43:44;6.38;;;3.38;;
45812;SDS011;31519;45.408;10.962;2022-11-20T07:46:12;12.02;;;4.03;;
45812;SDS011;31519;45.408;10.962;2022-11-20T07:48:40;10.40;;;4.00;;
45812;SDS011;31519;45.408;10.962;2022-11-20T07:51:08;6.60;;;2.70;;
45812;SDS011;31519;45.408;10.962;2022-11-20T07:53:37;16.35;;;4.22;;
45812;SDS011;31519;45.408;10.962;2022-11-20T07:56:05;5.78;;;2.72;;
45812;SDS011;31519;45.408;10.962;2022-11-20T07:58:34;19.23;;;10.85;;
45812;SDS011;31519;45.408;10.962;2022-11-20T08:01:03;10.13;;;5.80;;
45812;SDS011;31519;45.408;10.962;2022-11-20T08:03:33;8.50;;;4.80;;
45812;SDS011;31519;45.408;10.962;2022-11-20T08:06:01;18.42;;;8.27;;
45812;SDS011;31519;45.408;10.962;2022-11-20T08:08:30;12.18;;;6.35;;
45812;SDS011;31519;45.408;10.962;2022-11-20T08:11:01;7.45;;;4.63;;
45812;SDS011;31519;45.408;10.962;2022-11-20T08:13:48;9.52;;;4.07;;
45812;SDS011;31519;45.408;10.962;2022-11-20T08:16:34;6.55;;;4.32;;
45812;SDS011;31519;45.408;10.962;2022-11-20T08:19:03;8.57;;;3.63;;
45812;SDS011;31519;45.408;10.962;2022-11-20T08:21:32;6.32;;;2.75;;
45812;SDS011;31519;45.408;10.962;2022-11-20T08:24:06;5.70;;;2.70;;
45812;SDS011;31519;45.408;10.962;2022-11-20T08:26:36;6.07;;;3.08;;
45812;SDS011;31519;45.408;10.962;2022-11-20T08:29:06;5.13;;;2.72;;
45812;SDS011;31519;45.408;10.962;2022-11-20T08:31:35;5.22;;;2.75;;
45812;SDS011;31519;45.408;10.962;2022-11-20T08:34:23;9.77;;;2.60;;
45812;SDS011;31519;45.408;10.962;2022-11-20T08:36:51;4.00;;;3.08;;
45812;SDS011;31519;45.408;10.962;2022-11-20T08:39:20;9.40;;;3.90;;
45812;SDS011;31519;45.408;10.962;2022-11-20T08:41:48;4.40;;;3.10;;
45812;SDS011;31519;45.408;10.962;2022-11-20T08:44:17;10.88;;;4.68;;
45812;SDS011;31519;45.408;10.962;2022-11-20T08:46:45;10.55;;;4.00;;
45812;SDS011;31519;45.408;10.962;2022-11-20T08:49:14;11.63;;;3.92;;
45812;SDS011;31519;45.408;10.962;2022-11-20T08:51:44;6.55;;;3.45;;
45812;SDS011;31519;45.408;10.962;2022-11-20T08:54:13;6.22;;;3.22;;
45812;SDS011;31519;45.408;10.962;2022-11-20T08:56:41;7.25;;;2.78;;
45812;SDS011;31519;45.408;10.962;2022-11-20T08:59:09;10.18;;;2.83;;
45812;SDS011;31519;45.408;10.962;2022-11-20T09:01:57;15.00;;;3.88;;
45812;SDS011;31519;45.408;10.962;2022-11-20T09:04:26;5.20;;;3.03;;
45812;SDS011;31519;45.408;10.962;2022-11-20T09:06:54;9.02;;;3.53;;
45812;SDS011;31519;45.408;10.962;2022-11-20T09:09:23;5.63;;;3.53;;
45812;SDS011;31519;45.408;10.962;2022-11-20T09:11:51;10.10;;;3.17;;
45812;SDS011;31519;45.408;10.962;2022-11-20T09:14:21;4.72;;;2.42;;
45812;SDS011;31519;45.408;10.962;2022-11-20T09:16:49;3.97;;;2.25;;
45812;SDS011;31519;45.408;10.962;2022-11-20T09:19:18;5.13;;;2.50;;
45812;SDS011;31519;45.408;10.962;2022-11-20T09:22:02;4.50;;;2.13;;
45812;SDS011;31519;45.408;10.962;2022-11-20T09:24:31;8.35;;;3.47;;
45812;SDS011;31519;45.408;10.962;2022-11-20T09:27:01;4.28;;;2.47;;
45812;SDS011;31519;45.408;10.962;2022-11-20T09:29:30;7.15;;;2.33;;
45812;SDS011;31519;45.408;10.962;2022-11-20T09:31:59;7.07;;;2.55;;
45812;SDS011;31519;45.408;10.962;2022-11-20T09:34:27;2.45;;;1.73;;
45812;SDS011;31519;45.408;10.962;2022-11-20T09:36:55;5.13;;;1.80;;
45812;SDS011;31519;45.408;10.962;2022-11-20T09:39:26;7.10;;;1.83;;
45812;SDS011;31519;45.408;10.962;2022-11-20T09:42:04;2.38;;;1.52;;
45812;SDS011;31519;45.408;10.962;2022-11-20T09:51:15;4.28;;;2.85;;
45812;SDS011;31519;45.408;10.962;2022-11-20T09:53:27;18.30;;;5.03;;
45812;SDS011;31519;45.408;10.962;2022-11-20T09:56:06;6.35;;;2.45;;
45812;SDS011;31519;45.408;10.962;2022-11-20T09:58:40;5.53;;;3.40;;
45812;SDS011;31519;45.408;10.962;2022-11-20T10:01:26;5.40;;;3.47;;
45812;SDS011;31519;45.408;10.962;2022-11-20T10:04:04;5.70;;;3.10;;
45812;SDS011;31519;45.408;10.962;2022-11-20T10:09:52;4.32;;;2.75;;
45812;SDS011;31519;45.408;10.962;2022-11-20T10:12:40;6.45;;;2.38;;
45812;SDS011;31519;45.408;10.962;2022-11-20T10:18:04;4.60;;;2.92;;
45812;SDS011;31519;45.408;10.962;2022-11-20T10:20:43;5.45;;;2.88;;
45812;SDS011;31519;45.408;10.962;2022-11-20T10:23:40;4.05;;;2.65;;
45812;SDS011;31519;45.408;10.962;2022-11-20T10:29:32;29.63;;;13.20;;
45812;SDS011;31519;45.408;10.962;2022-11-20T10:32:03;6.38;;;3.35;;
45812;SDS011;31519;45.408;10.962;2022-11-20T10:37:26;3.42;;;2.58;;
45812;SDS011;31519;45.408;10.962;2022-11-20T10:40:14;9.15;;;3.85;;
45812;SDS011;31519;45.408;10.962;2022-11-20T10:42:56;4.38;;;3.05;;
45812;SDS011;31519;45.408;10.962;2022-11-20T10:45:34;10.68;;;5.18;;
45812;SDS011;31519;45.408;10.962;2022-11-20T10:48:14;9.43;;;4.10;;
45812;SDS011;31519;45.408;10.962;2022-11-20T10:50:46;7.78;;;4.53;;
45812;SDS011;31519;45.408;10.962;2022-11-20T10:56:20;7.72;;;4.07;;
45812;SDS011;31519;45.408;10.962;2022-11-20T11:01:53;12.55;;;3.75;;
45812;SDS011;31519;45.408;10.962;2022-11-20T11:07:25;6.93;;;3.67;;
45812;SDS011;31519;45.408;10.962;2022-11-20T11:09:58;8.98;;;4.43;;
45812;SDS011;31519;45.408;10.962;2022-11-20T11:12:28;7.25;;;3.97;;
45812;SDS011;31519;45.408;10.962;2022-11-20T11:14:56;10.15;;;5.18;;
45812;SDS011;31519;45.408;10.962;2022-11-20T11:17:26;20.17;;;10.13;;
45812;SDS011;31519;45.408;10.962;2022-11-20T11:22:48;5.88;;;3.83;;
45812;SDS011;31519;45.408;10.962;2022-11-20T11:25:27;5.07;;;3.40;;
45812;SDS011;31519;45.408;10.962;2022-11-20T11:28:21;6.00;;;3.53;;
45812;SDS011;31519;45.408;10.962;2022-11-20T11:30:53;7.47;;;3.97;;
45812;SDS011;31519;45.408;10.962;2022-11-20T11:35:55;6.25;;;3.83;;
45812;SDS011;31519;45.408;10.962;2022-11-20T11:38:34;6.32;;;2.83;;
45812;SDS011;31519;45.408;10.962;2022-11-20T11:41:18;6.17;;;4.67;;
45812;SDS011;31519;45.408;10.962;2022-11-20T11:47:03;10.75;;;5.85;;
45812;SDS011;31519;45.408;10.962;2022-11-20T11:49:34;8.30;;;5.47;;
45812;SDS011;31519;45.408;10.962;2022-11-20T11:54:49;12.95;;;6.82;;
45812;SDS011;31519;45.408;10.962;2022-11-20T11:57:37;17.23;;;9.80;;
45812;SDS011;31519;45.408;10.962;2022-11-20T12:00:09;16.27;;;8.60;;
45812;SDS011;31519;45.408;10.962;2022-11-20T12:05:23;15.10;;;7.80;;
45812;SDS011;31519;45.408;10.962;2022-11-20T12:15:58;25.70;;;12.02;;
45812;SDS011;31519;45.408;10.962;2022-11-20T12:18:28;25.98;;;12.25;;
45812;SDS011;31519;45.408;10.962;2022-11-20T12:21:01;22.30;;;11.70;;
45812;SDS011;31519;45.408;10.962;2022-11-20T12:51:26;21.53;;;11.80;;
45812;SDS011;31519;45.408;10.962;2022-11-20T13:08:24;25.25;;;14.52;;
45812;SDS011;31519;45.408;10.962;2022-11-20T13:13:47;24.92;;;13.50;;
45812;SDS011;31519;45.408;10.962;2022-11-20T13:19:09;30.00;;;15.95;;
45812;SDS011;31519;45.408;10.962;2022-11-20T13:21:46;28.65;;;14.15;;
45812;SDS011;31519;45.408;10.962;2022-11-20T13:26:47;28.48;;;14.27;;
45812;SDS011;31519;45.408;10.962;2022-11-20T13:29:26;26.27;;;14.13;;
45812;SDS011;31519;45.408;10.962;2022-11-20T13:32:29;27.55;;;14.25;;
45812;SDS011;31519;45.408;10.962;2022-11-20T13:34:53;28.88;;;14.90;;
45812;SDS011;31519;45.408;10.962;2022-11-20T13:42:44;27.02;;;14.07;;
45812;SDS011;31519;45.408;10.962;2022-11-20T13:45:23;23.80;;;14.15;;
45812;SDS011;31519;45.408;10.962;2022-11-20T13:47:55;23.77;;;14.70;;
45812;SDS011;31519;45.408;10.962;2022-11-20T13:53:12;30.58;;;16.30;;
45812;SDS011;31519;45.408;10.962;2022-11-20T13:59:15;23.00;;;14.43;;
45812;SDS011;31519;45.408;10.962;2022-11-20T14:02:14;26.15;;;14.90;;
45812;SDS011;31519;45.408;10.962;2022-11-20T14:04:47;28.42;;;14.90;;
45812;SDS011;31519;45.408;10.962;2022-11-20T14:07:17;24.50;;;13.45;;
45812;SDS011;31519;45.408;10.962;2022-11-20T14:09:52;21.20;;;12.77;;
45812;SDS011;31519;45.408;10.962;2022-11-20T14:12:23;23.58;;;12.88;;
45812;SDS011;31519;45.408;10.962;2022-11-20T14:14:59;27.40;;;13.00;;
45812;SDS011;31519;45.408;10.962;2022-11-20T14:17:31;21.98;;;12.40;;
45812;SDS011;31519;45.408;10.962;2022-11-20T14:20:05;16.92;;;11.52;;
45812;SDS011;31519;45.408;10.962;2022-11-20T14:22:47;24.65;;;13.68;;
45812;SDS011;31519;45.408;10.962;2022-11-20T14:25:20;26.27;;;13.50;;
45812;SDS011;31519;45.408;10.962;2022-11-20T14:30:23;21.33;;;13.38;;
45812;SDS011;31519;45.408;10.962;2022-11-20T14:33:00;23.15;;;13.68;;
45812;SDS011;31519;45.408;10.962;2022-11-20T14:38:02;24.75;;;12.73;;
45812;SDS011;31519;45.408;10.962;2022-11-20T14:40:33;20.90;;;13.18;;
45812;SDS011;31519;45.408;10.962;2022-11-20T14:45:58;20.30;;;12.82;;
45812;SDS011;31519;45.408;10.962;2022-11-20T14:48:37;21.48;;;13.15;;
45812;SDS011;31519;45.408;10.962;2022-11-20T14:51:11;21.08;;;13.18;;
45812;SDS011;31519;45.408;10.962;2022-11-20T14:53:55;21.45;;;12.50;;
45812;SDS011;31519;45.408;10.962;2022-11-20T14:56:24;23.45;;;12.57;;
45812;SDS011;31519;45.408;10.962;2022-11-20T14:58:56;28.27;;;12.73;;
45812;SDS011;31519;45.408;10.962;2022-11-20T15:04:04;19.83;;;13.30;;
45812;SDS011;31519;45.408;10.962;2022-11-20T15:06:37;18.13;;;12.85;;
45812;SDS011;31519;45.408;10.962;2022-11-20T15:09:12;24.98;;;13.65;;
45812;SDS011;31519;45.408;10.962;2022-11-20T15:11:50;20.95;;;13.30;;
45812;SDS011;31519;45.408;10.962;2022-11-20T15:14:30;20.38;;;13.52;;
45812;SDS011;31519;45.408;10.962;2022-11-20T15:17:00;23.75;;;13.98;;
45812;SDS011;31519;45.408;10.962;2022-11-20T15:19:29;23.27;;;13.88;;
45812;SDS011;31519;45.408;10.962;2022-11-20T15:21:58;22.75;;;13.15;;
45812;SDS011;31519;45.408;10.962;2022-11-20T15:24:26;27.38;;;14.95;;
45812;SDS011;31519;45.408;10.962;2022-11-20T15:26:54;25.75;;;13.73;;
45812;SDS011;31519;45.408;10.962;2022-11-20T15:29:22;28.10;;;15.07;;
45812;SDS011;31519;45.408;10.962;2022-11-20T15:31:51;24.65;;;14.57;;
45812;SDS011;31519;45.408;10.962;2022-11-20T15:34:21;26.25;;;15.80;;
45812;SDS011;31519;45.408;10.962;2022-11-20T15:36:50;31.45;;;15.98;;
45812;SDS011;31519;45.408;10.962;2022-11-20T15:39:18;27.73;;;16.27;;
45812;SDS011;31519;45.408;10.962;2022-11-20T15:41:47;26.15;;;15.52;;
45812;SDS011;31519;45.408;10.962;2022-11-20T15:44:14;44.35;;;23.15;;
45812;SDS011;31519;45.408;10.962;2022-11-20T15:46:43;27.85;;;16.13;;
45812;SDS011;31519;45.408;10.962;2022-11-20T15:49:13;28.73;;;15.02;;
45812;SDS011;31519;45.408;10.962;2022-11-20T15:51:47;27.65;;;14.32;;
45812;SDS011;31519;45.408;10.962;2022-11-20T15:54:21;25.20;;;15.20;;
45812;SDS011;31519;45.408;10.962;2022-11-20T15:56:51;28.58;;;17.52;;
45812;SDS011;31519;45.408;10.962;2022-11-20T15:59:21;25.85;;;16.75;;
45812;SDS011;31519;45.408;10.962;2022-11-20T16:01:49;31.45;;;15.57;;
45812;SDS011;31519;45.408;10.962;2022-11-20T16:04:17;32.00;;;18.33;;
45812;SDS011;31519;45.408;10.962;2022-11-20T16:06:46;28.77;;;14.85;;
45812;SDS011;31519;45.408;10.962;2022-11-20T16:09:14;27.27;;;16.38;;
45812;SDS011;31519;45.408;10.962;2022-11-20T16:11:42;88.55;;;38.63;;
45812;SDS011;31519;45.408;10.962;2022-11-20T16:14:10;289.38;;;137.32;;
45812;SDS011;31519;45.408;10.962;2022-11-20T16:16:57;264.80;;;128.98;;
45812;SDS011;31519;45.408;10.962;2022-11-20T16:19:25;102.28;;;51.70;;
45812;SDS011;31519;45.408;10.962;2022-11-20T16:21:53;57.03;;;28.67;;
45812;SDS011;31519;45.408;10.962;2022-11-20T16:24:29;38.60;;;18.63;;
45812;SDS011;31519;45.408;10.962;2022-11-20T16:26:57;31.27;;;17.63;;
45812;SDS011;31519;45.408;10.962;2022-11-20T16:29:26;29.65;;;16.55;;
45812;SDS011;31519;45.408;10.962;2022-11-20T16:31:56;34.55;;;16.52;;
45812;SDS011;31519;45.408;10.962;2022-11-20T16:34:24;26.80;;;15.20;;
45812;SDS011;31519;45.408;10.962;2022-11-20T16:36:52;28.17;;;16.08;;
45812;SDS011;31519;45.408;10.962;2022-11-20T16:39:20;32.45;;;16.40;;
45812;SDS011;31519;45.408;10.962;2022-11-20T16:41:50;36.00;;;18.02;;
45812;SDS011;31519;45.408;10.962;2022-11-20T16:44:19;35.90;;;18.10;;
45812;SDS011;31519;45.408;10.962;2022-11-20T16:46:48;28.50;;;17.45;;
45812;SDS011;31519;45.408;10.962;2022-11-20T16:49:16;31.85;;;18.25;;
45812;SDS011;31519;45.408;10.962;2022-11-20T16:51:45;37.83;;;19.02;;
45812;SDS011;31519;45.408;10.962;2022-11-20T16:54:13;32.90;;;18.42;;
45812;SDS011;31519;45.408;10.962;2022-11-20T16:56:47;33.00;;;16.80;;